TDPD/DOM METAR and TAF weather

Enter ICAO airport designator
Station Type Date Time Source
TDPD METAR 2022/05/23 14:00 UTC NOAA

TDPD 231400Z 11010KT 9999 SCT018 29/24 Q1018


Station Type Date Time Source
TDPD Decoded METAR 2022/05/23 14:00 UTC NOAA

Melville Hall Airport, Dominica (TDPD) 15-32N 061-18W 14M
May 23, 2022 - 10:00 AM EDT / 2022.05.23 1400 UTC
Wind: from the ESE (110 degrees) at 12 MPH (10 KT):0
Visibility: greater than 7 mile(s):0
Sky conditions: partly cloudy
Temperature: 84 F (29 C)
Dew Point: 75 F (24 C)
Relative Humidity: 74%
Pressure (altimeter): 30.06 in. Hg (1018 hPa)
ob: TDPD 231400Z 11010KT 9999 SCT018 29/24 Q1018
cycle: 14

Station Type Date Time Source
TDPD TAF 2022/05/23 12:23 UTC NOAA

TAF TDPD 231100Z 2312/2412 11010KT 9999 SCT018 PROB40
TEMPO 2312/2318 SHRA BKN015

Example: see airport list